sensor_id;sensor_type;location;lat;lon;timestamp;P1;durP1;ratioP1;P2;durP2;ratioP2
438;SDS011;206;48.782;9.252;2023-03-31T00:02:00;5.23;;;3.30;;
438;SDS011;206;48.782;9.252;2023-03-31T00:04:31;9.17;;;3.33;;
438;SDS011;206;48.782;9.252;2023-03-31T00:06:57;6.50;;;2.80;;
438;SDS011;206;48.782;9.252;2023-03-31T00:09:23;7.67;;;3.57;;
438;SDS011;206;48.782;9.252;2023-03-31T00:11:49;9.63;;;4.60;;
438;SDS011;206;48.782;9.252;2023-03-31T00:14:16;8.07;;;5.10;;
438;SDS011;206;48.782;9.252;2023-03-31T00:16:43;9.90;;;5.30;;
438;SDS011;206;48.782;9.252;2023-03-31T00:19:09;15.57;;;5.87;;
438;SDS011;206;48.782;9.252;2023-03-31T00:21:42;10.50;;;5.90;;
438;SDS011;206;48.782;9.252;2023-03-31T00:24:08;7.57;;;4.97;;
438;SDS011;206;48.782;9.252;2023-03-31T00:26:35;10.07;;;4.80;;
438;SDS011;206;48.782;9.252;2023-03-31T00:29:02;7.80;;;4.50;;
438;SDS011;206;48.782;9.252;2023-03-31T00:31:28;8.40;;;4.67;;
438;SDS011;206;48.782;9.252;2023-03-31T00:33:55;7.17;;;3.40;;
438;SDS011;206;48.782;9.252;2023-03-31T00:36:21;7.10;;;2.97;;
438;SDS011;206;48.782;9.252;2023-03-31T00:38:58;4.63;;;2.63;;
438;SDS011;206;48.782;9.252;2023-03-31T00:41:33;5.20;;;2.40;;
438;SDS011;206;48.782;9.252;2023-03-31T00:54:32;5.30;;;3.00;;
438;SDS011;206;48.782;9.252;2023-03-31T00:56:59;11.03;;;3.60;;
438;SDS011;206;48.782;9.252;2023-03-31T00:59:28;10.00;;;4.23;;
438;SDS011;206;48.782;9.252;2023-03-31T01:01:56;9.20;;;3.80;;
438;SDS011;206;48.782;9.252;2023-03-31T01:04:26;5.87;;;3.70;;
438;SDS011;206;48.782;9.252;2023-03-31T01:06:59;6.43;;;2.80;;
438;SDS011;206;48.782;9.252;2023-03-31T01:09:33;4.67;;;3.67;;
438;SDS011;206;48.782;9.252;2023-03-31T01:12:00;6.57;;;3.93;;
438;SDS011;206;48.782;9.252;2023-03-31T01:14:29;8.40;;;3.70;;
438;SDS011;206;48.782;9.252;2023-03-31T01:16:55;9.00;;;3.57;;
438;SDS011;206;48.782;9.252;2023-03-31T01:19:28;11.03;;;3.70;;
438;SDS011;206;48.782;9.252;2023-03-31T01:22:33;7.10;;;2.93;;
438;SDS011;206;48.782;9.252;2023-03-31T01:33:59;12.00;;;3.30;;
438;SDS011;206;48.782;9.252;2023-03-31T01:53:01;9.07;;;4.30;;
438;SDS011;206;48.782;9.252;2023-03-31T01:55:50;8.27;;;3.30;;
438;SDS011;206;48.782;9.252;2023-03-31T01:58:19;8.17;;;3.57;;
438;SDS011;206;48.782;9.252;2023-03-31T02:00:57;9.73;;;2.70;;
438;SDS011;206;48.782;9.252;2023-03-31T02:03:31;12.50;;;3.03;;
438;SDS011;206;48.782;9.252;2023-03-31T02:06:04;3.43;;;2.27;;
438;SDS011;206;48.782;9.252;2023-03-31T02:08:43;7.80;;;2.73;;
438;SDS011;206;48.782;9.252;2023-03-31T02:11:19;4.97;;;2.37;;
438;SDS011;206;48.782;9.252;2023-03-31T02:13:46;3.93;;;2.00;;
438;SDS011;206;48.782;9.252;2023-03-31T02:16:17;5.23;;;2.07;;
438;SDS011;206;48.782;9.252;2023-03-31T02:18:48;6.60;;;2.00;;
438;SDS011;206;48.782;9.252;2023-03-31T02:21:16;5.50;;;1.80;;
438;SDS011;206;48.782;9.252;2023-03-31T02:23:43;6.10;;;1.70;;
438;SDS011;206;48.782;9.252;2023-03-31T02:26:20;6.17;;;2.37;;
438;SDS011;206;48.782;9.252;2023-03-31T02:28:49;3.40;;;2.13;;
438;SDS011;206;48.782;9.252;2023-03-31T02:34:03;4.07;;;1.90;;
438;SDS011;206;48.782;9.252;2023-03-31T02:36:29;5.67;;;2.47;;
438;SDS011;206;48.782;9.252;2023-03-31T02:38:59;6.17;;;2.70;;
438;SDS011;206;48.782;9.252;2023-03-31T02:41:29;5.17;;;3.23;;
438;SDS011;206;48.782;9.252;2023-03-31T02:43:55;2.30;;;1.80;;
438;SDS011;206;48.782;9.252;2023-03-31T02:46:20;4.37;;;1.90;;
438;SDS011;206;48.782;9.252;2023-03-31T02:48:48;5.90;;;2.30;;
438;SDS011;206;48.782;9.252;2023-03-31T02:51:40;4.10;;;1.83;;
438;SDS011;206;48.782;9.252;2023-03-31T02:54:28;8.80;;;2.93;;
438;SDS011;206;48.782;9.252;2023-03-31T03:03:05;4.87;;;2.30;;
438;SDS011;206;48.782;9.252;2023-03-31T03:06:00;5.83;;;2.80;;
438;SDS011;206;48.782;9.252;2023-03-31T03:11:53;7.97;;;2.90;;
438;SDS011;206;48.782;9.252;2023-03-31T03:14:28;5.37;;;3.10;;
438;SDS011;206;48.782;9.252;2023-03-31T03:17:21;7.30;;;2.53;;
438;SDS011;206;48.782;9.252;2023-03-31T03:19:56;5.40;;;2.97;;
438;SDS011;206;48.782;9.252;2023-03-31T03:22:25;4.40;;;2.70;;
438;SDS011;206;48.782;9.252;2023-03-31T03:24:50;5.40;;;3.57;;
438;SDS011;206;48.782;9.252;2023-03-31T03:27:17;7.43;;;3.37;;
438;SDS011;206;48.782;9.252;2023-03-31T03:29:46;5.20;;;2.60;;
438;SDS011;206;48.782;9.252;2023-03-31T03:32:12;6.93;;;2.67;;
438;SDS011;206;48.782;9.252;2023-03-31T03:34:37;8.07;;;2.60;;
438;SDS011;206;48.782;9.252;2023-03-31T03:37:03;7.23;;;3.37;;
438;SDS011;206;48.782;9.252;2023-03-31T03:39:29;4.23;;;2.30;;
438;SDS011;206;48.782;9.252;2023-03-31T03:41:55;3.20;;;2.40;;
438;SDS011;206;48.782;9.252;2023-03-31T03:44:21;3.97;;;3.10;;
438;SDS011;206;48.782;9.252;2023-03-31T03:46:47;6.20;;;2.93;;
438;SDS011;206;48.782;9.252;2023-03-31T03:49:12;6.43;;;3.27;;
438;SDS011;206;48.782;9.252;2023-03-31T03:51:38;3.60;;;2.20;;
438;SDS011;206;48.782;9.252;2023-03-31T03:54:03;5.53;;;3.10;;
438;SDS011;206;48.782;9.252;2023-03-31T03:56:29;5.03;;;2.17;;
438;SDS011;206;48.782;9.252;2023-03-31T03:58:55;3.90;;;3.10;;
438;SDS011;206;48.782;9.252;2023-03-31T04:01:21;6.47;;;3.10;;
438;SDS011;206;48.782;9.252;2023-03-31T04:03:47;3.40;;;2.53;;
438;SDS011;206;48.782;9.252;2023-03-31T04:06:13;8.37;;;3.80;;
438;SDS011;206;48.782;9.252;2023-03-31T04:08:38;3.57;;;2.93;;
438;SDS011;206;48.782;9.252;2023-03-31T04:11:09;5.40;;;3.00;;
438;SDS011;206;48.782;9.252;2023-03-31T04:13:41;5.47;;;2.90;;
438;SDS011;206;48.782;9.252;2023-03-31T04:16:07;6.43;;;3.53;;
438;SDS011;206;48.782;9.252;2023-03-31T04:18:33;7.43;;;3.43;;
438;SDS011;206;48.782;9.252;2023-03-31T04:21:01;4.20;;;3.20;;
438;SDS011;206;48.782;9.252;2023-03-31T04:23:33;5.63;;;2.63;;
438;SDS011;206;48.782;9.252;2023-03-31T04:26:02;6.40;;;3.83;;
438;SDS011;206;48.782;9.252;2023-03-31T04:28:32;8.87;;;3.57;;
438;SDS011;206;48.782;9.252;2023-03-31T04:30:58;7.90;;;3.40;;
438;SDS011;206;48.782;9.252;2023-03-31T04:33:25;4.87;;;3.20;;
438;SDS011;206;48.782;9.252;2023-03-31T04:35:51;5.60;;;3.50;;
438;SDS011;206;48.782;9.252;2023-03-31T04:38:18;6.50;;;3.33;;
438;SDS011;206;48.782;9.252;2023-03-31T04:40:46;7.83;;;4.10;;
438;SDS011;206;48.782;9.252;2023-03-31T04:43:13;6.37;;;3.93;;
438;SDS011;206;48.782;9.252;2023-03-31T04:45:40;12.33;;;4.07;;
438;SDS011;206;48.782;9.252;2023-03-31T04:48:06;8.67;;;4.27;;
438;SDS011;206;48.782;9.252;2023-03-31T04:50:32;8.97;;;5.43;;
438;SDS011;206;48.782;9.252;2023-03-31T04:52:57;10.00;;;4.57;;
438;SDS011;206;48.782;9.252;2023-03-31T04:55:23;10.07;;;5.50;;
438;SDS011;206;48.782;9.252;2023-03-31T04:57:49;8.73;;;4.40;;
438;SDS011;206;48.782;9.252;2023-03-31T05:00:15;16.73;;;5.63;;
438;SDS011;206;48.782;9.252;2023-03-31T05:02:42;8.83;;;4.83;;
438;SDS011;206;48.782;9.252;2023-03-31T05:05:07;8.10;;;4.47;;
438;SDS011;206;48.782;9.252;2023-03-31T05:07:34;9.23;;;5.03;;
438;SDS011;206;48.782;9.252;2023-03-31T05:10:00;6.60;;;3.77;;
438;SDS011;206;48.782;9.252;2023-03-31T05:12:25;8.30;;;3.77;;
438;SDS011;206;48.782;9.252;2023-03-31T05:14:51;5.43;;;4.03;;
438;SDS011;206;48.782;9.252;2023-03-31T05:17:16;6.03;;;3.27;;
438;SDS011;206;48.782;9.252;2023-03-31T05:19:42;7.93;;;3.83;;
438;SDS011;206;48.782;9.252;2023-03-31T05:22:08;7.80;;;3.73;;
438;SDS011;206;48.782;9.252;2023-03-31T05:24:34;11.40;;;4.43;;
438;SDS011;206;48.782;9.252;2023-03-31T05:27:00;5.33;;;4.83;;
438;SDS011;206;48.782;9.252;2023-03-31T05:29:26;6.47;;;3.93;;
438;SDS011;206;48.782;9.252;2023-03-31T05:31:52;4.33;;;3.23;;
438;SDS011;206;48.782;9.252;2023-03-31T05:34:18;5.07;;;3.53;;
438;SDS011;206;48.782;9.252;2023-03-31T05:36:44;9.67;;;4.40;;
438;SDS011;206;48.782;9.252;2023-03-31T05:39:12;7.63;;;4.00;;
438;SDS011;206;48.782;9.252;2023-03-31T05:41:37;12.20;;;4.03;;
438;SDS011;206;48.782;9.252;2023-03-31T05:44:08;7.10;;;5.10;;
438;SDS011;206;48.782;9.252;2023-03-31T05:46:33;10.10;;;5.20;;
438;SDS011;206;48.782;9.252;2023-03-31T05:48:59;7.50;;;4.83;;
438;SDS011;206;48.782;9.252;2023-03-31T05:51:25;9.90;;;5.33;;
438;SDS011;206;48.782;9.252;2023-03-31T05:53:50;14.67;;;6.20;;
438;SDS011;206;48.782;9.252;2023-03-31T05:56:16;9.10;;;6.03;;
438;SDS011;206;48.782;9.252;2023-03-31T05:58:41;9.93;;;5.50;;
438;SDS011;206;48.782;9.252;2023-03-31T06:01:11;10.93;;;5.00;;
438;SDS011;206;48.782;9.252;2023-03-31T06:03:43;7.27;;;5.20;;
438;SDS011;206;48.782;9.252;2023-03-31T06:06:10;10.60;;;6.07;;
438;SDS011;206;48.782;9.252;2023-03-31T06:08:37;9.10;;;4.97;;
438;SDS011;206;48.782;9.252;2023-03-31T06:11:04;8.43;;;5.70;;
438;SDS011;206;48.782;9.252;2023-03-31T06:13:34;6.43;;;4.80;;
438;SDS011;206;48.782;9.252;2023-03-31T06:16:01;12.40;;;4.87;;
438;SDS011;206;48.782;9.252;2023-03-31T06:18:27;6.00;;;4.30;;
438;SDS011;206;48.782;9.252;2023-03-31T06:20:54;6.93;;;4.73;;
438;SDS011;206;48.782;9.252;2023-03-31T06:23:20;5.20;;;4.90;;
438;SDS011;206;48.782;9.252;2023-03-31T06:25:46;10.83;;;5.27;;
438;SDS011;206;48.782;9.252;2023-03-31T06:28:12;10.03;;;5.47;;
438;SDS011;206;48.782;9.252;2023-03-31T06:30:38;11.70;;;8.00;;
438;SDS011;206;48.782;9.252;2023-03-31T06:33:03;12.73;;;7.40;;
438;SDS011;206;48.782;9.252;2023-03-31T06:35:29;20.43;;;10.33;;
438;SDS011;206;48.782;9.252;2023-03-31T06:37:54;20.17;;;10.53;;
438;SDS011;206;48.782;9.252;2023-03-31T06:40:21;18.03;;;9.93;;
438;SDS011;206;48.782;9.252;2023-03-31T06:42:47;13.80;;;9.13;;
438;SDS011;206;48.782;9.252;2023-03-31T06:45:12;18.63;;;9.00;;
438;SDS011;206;48.782;9.252;2023-03-31T06:47:38;13.90;;;7.33;;
438;SDS011;206;48.782;9.252;2023-03-31T06:50:05;16.40;;;8.30;;
438;SDS011;206;48.782;9.252;2023-03-31T06:52:33;14.40;;;8.13;;
438;SDS011;206;48.782;9.252;2023-03-31T06:54:59;13.33;;;8.77;;
438;SDS011;206;48.782;9.252;2023-03-31T06:57:26;11.07;;;7.07;;
438;SDS011;206;48.782;9.252;2023-03-31T06:59:52;10.13;;;6.70;;
438;SDS011;206;48.782;9.252;2023-03-31T07:02:18;12.90;;;8.83;;
438;SDS011;206;48.782;9.252;2023-03-31T07:04:44;12.33;;;7.00;;
438;SDS011;206;48.782;9.252;2023-03-31T07:07:09;15.63;;;7.47;;
438;SDS011;206;48.782;9.252;2023-03-31T07:09:35;14.80;;;8.40;;
438;SDS011;206;48.782;9.252;2023-03-31T07:12:01;13.20;;;8.30;;
438;SDS011;206;48.782;9.252;2023-03-31T07:14:29;11.10;;;8.07;;
438;SDS011;206;48.782;9.252;2023-03-31T07:16:55;7.77;;;6.00;;
438;SDS011;206;48.782;9.252;2023-03-31T07:19:21;12.47;;;6.73;;
438;SDS011;206;48.782;9.252;2023-03-31T07:21:47;8.30;;;5.70;;
438;SDS011;206;48.782;9.252;2023-03-31T07:24:13;7.00;;;4.63;;
438;SDS011;206;48.782;9.252;2023-03-31T07:26:39;8.03;;;4.67;;
438;SDS011;206;48.782;9.252;2023-03-31T07:29:04;8.63;;;4.73;;
438;SDS011;206;48.782;9.252;2023-03-31T07:31:30;6.13;;;4.20;;
438;SDS011;206;48.782;9.252;2023-03-31T07:33:56;5.10;;;2.90;;
438;SDS011;206;48.782;9.252;2023-03-31T07:36:22;4.67;;;2.93;;
438;SDS011;206;48.782;9.252;2023-03-31T07:38:48;5.53;;;2.97;;
438;SDS011;206;48.782;9.252;2023-03-31T07:41:15;3.37;;;2.70;;
438;SDS011;206;48.782;9.252;2023-03-31T07:43:42;4.40;;;2.67;;
438;SDS011;206;48.782;9.252;2023-03-31T07:46:16;5.57;;;3.20;;
438;SDS011;206;48.782;9.252;2023-03-31T07:48:44;4.77;;;2.60;;
438;SDS011;206;48.782;9.252;2023-03-31T07:51:10;2.67;;;2.17;;
438;SDS011;206;48.782;9.252;2023-03-31T07:53:37;3.90;;;2.27;;
438;SDS011;206;48.782;9.252;2023-03-31T07:56:03;4.50;;;3.50;;
438;SDS011;206;48.782;9.252;2023-03-31T07:58:29;3.03;;;2.03;;
438;SDS011;206;48.782;9.252;2023-03-31T08:00:54;2.90;;;1.50;;
438;SDS011;206;48.782;9.252;2023-03-31T08:03:20;4.67;;;2.43;;
438;SDS011;206;48.782;9.252;2023-03-31T08:05:46;2.20;;;1.47;;
438;SDS011;206;48.782;9.252;2023-03-31T08:08:11;1.30;;;1.07;;
438;SDS011;206;48.782;9.252;2023-03-31T08:10:37;1.77;;;1.10;;
438;SDS011;206;48.782;9.252;2023-03-31T08:13:02;2.20;;;1.17;;
438;SDS011;206;48.782;9.252;2023-03-31T08:15:28;1.10;;;1.10;;
438;SDS011;206;48.782;9.252;2023-03-31T08:17:53;1.77;;;1.23;;
438;SDS011;206;48.782;9.252;2023-03-31T08:20:19;1.10;;;1.00;;
438;SDS011;206;48.782;9.252;2023-03-31T08:22:45;5.53;;;1.10;;
438;SDS011;206;48.782;9.252;2023-03-31T08:25:10;3.17;;;2.20;;
438;SDS011;206;48.782;9.252;2023-03-31T08:27:37;2.30;;;0.97;;
438;SDS011;206;48.782;9.252;2023-03-31T08:30:08;2.90;;;1.07;;
438;SDS011;206;48.782;9.252;2023-03-31T08:32:35;1.67;;;0.70;;
438;SDS011;206;48.782;9.252;2023-03-31T08:35:01;1.40;;;0.97;;
438;SDS011;206;48.782;9.252;2023-03-31T08:37:27;1.80;;;1.00;;
438;SDS011;206;48.782;9.252;2023-03-31T08:39:54;1.10;;;1.10;;
438;SDS011;206;48.782;9.252;2023-03-31T08:47:52;3.90;;;1.87;;
438;SDS011;206;48.782;9.252;2023-03-31T08:50:20;3.67;;;1.57;;
438;SDS011;206;48.782;9.252;2023-03-31T08:55:45;3.27;;;1.40;;
438;SDS011;206;48.782;9.252;2023-03-31T09:12:39;2.60;;;1.10;;
438;SDS011;206;48.782;9.252;2023-03-31T09:15:10;3.50;;;1.00;;
438;SDS011;206;48.782;9.252;2023-03-31T09:17:46;1.63;;;0.80;;
438;SDS011;206;48.782;9.252;2023-03-31T09:20:24;2.50;;;1.43;;
438;SDS011;206;48.782;9.252;2023-03-31T09:22:56;3.77;;;1.20;;
438;SDS011;206;48.782;9.252;2023-03-31T09:25:30;2.23;;;1.40;;
438;SDS011;206;48.782;9.252;2023-03-31T09:28:00;2.30;;;1.27;;
438;SDS011;206;48.782;9.252;2023-03-31T09:30:30;4.43;;;1.50;;
438;SDS011;206;48.782;9.252;2023-03-31T09:33:14;4.57;;;1.30;;
438;SDS011;206;48.782;9.252;2023-03-31T09:35:56;1.93;;;0.90;;
438;SDS011;206;48.782;9.252;2023-03-31T09:38:25;6.50;;;1.73;;
438;SDS011;206;48.782;9.252;2023-03-31T09:40:54;4.57;;;1.40;;
438;SDS011;206;48.782;9.252;2023-03-31T09:43:22;4.30;;;2.73;;
438;SDS011;206;48.782;9.252;2023-03-31T09:45:53;5.23;;;1.10;;
438;SDS011;206;48.782;9.252;2023-03-31T09:48:21;4.13;;;1.50;;
438;SDS011;206;48.782;9.252;2023-03-31T09:50:54;4.57;;;1.27;;
438;SDS011;206;48.782;9.252;2023-03-31T09:59:12;2.50;;;1.67;;
438;SDS011;206;48.782;9.252;2023-03-31T10:01:55;5.10;;;1.50;;
438;SDS011;206;48.782;9.252;2023-03-31T10:04:23;2.93;;;1.00;;
438;SDS011;206;48.782;9.252;2023-03-31T10:06:52;8.93;;;1.30;;
438;SDS011;206;48.782;9.252;2023-03-31T10:09:19;5.43;;;1.80;;
438;SDS011;206;48.782;9.252;2023-03-31T10:11:55;8.63;;;1.50;;
438;SDS011;206;48.782;9.252;2023-03-31T10:14:24;3.43;;;1.20;;
438;SDS011;206;48.782;9.252;2023-03-31T10:16:56;3.33;;;1.67;;
438;SDS011;206;48.782;9.252;2023-03-31T10:22:02;3.23;;;1.50;;
438;SDS011;206;48.782;9.252;2023-03-31T10:24:41;3.50;;;1.33;;
438;SDS011;206;48.782;9.252;2023-03-31T10:29:42;3.20;;;1.53;;
438;SDS011;206;48.782;9.252;2023-03-31T10:32:09;4.83;;;2.03;;
438;SDS011;206;48.782;9.252;2023-03-31T10:34:52;4.77;;;1.90;;
438;SDS011;206;48.782;9.252;2023-03-31T10:37:21;4.87;;;1.77;;
438;SDS011;206;48.782;9.252;2023-03-31T10:42:57;2.40;;;1.47;;
438;SDS011;206;48.782;9.252;2023-03-31T10:45:56;3.47;;;1.80;;
438;SDS011;206;48.782;9.252;2023-03-31T10:50:50;3.67;;;1.90;;
438;SDS011;206;48.782;9.252;2023-03-31T10:53:16;4.03;;;1.57;;
438;SDS011;206;48.782;9.252;2023-03-31T10:58:45;3.70;;;2.00;;
438;SDS011;206;48.782;9.252;2023-03-31T11:04:40;5.17;;;2.20;;
438;SDS011;206;48.782;9.252;2023-03-31T11:07:31;2.80;;;1.13;;
438;SDS011;206;48.782;9.252;2023-03-31T11:10:19;5.67;;;1.30;;
438;SDS011;206;48.782;9.252;2023-03-31T11:12:59;2.10;;;1.10;;
438;SDS011;206;48.782;9.252;2023-03-31T11:18:17;5.87;;;1.50;;
438;SDS011;206;48.782;9.252;2023-03-31T11:23:47;3.77;;;2.00;;
438;SDS011;206;48.782;9.252;2023-03-31T11:26:24;5.57;;;1.63;;
438;SDS011;206;48.782;9.252;2023-03-31T11:36:53;3.13;;;0.90;;
438;SDS011;206;48.782;9.252;2023-03-31T11:42:19;3.27;;;1.43;;
438;SDS011;206;48.782;9.252;2023-03-31T11:44:52;5.60;;;1.80;;
438;SDS011;206;48.782;9.252;2023-03-31T11:47:25;1.53;;;0.70;;
438;SDS011;206;48.782;9.252;2023-03-31T11:49:58;1.50;;;0.77;;
438;SDS011;206;48.782;9.252;2023-03-31T11:52:29;1.07;;;0.50;;
438;SDS011;206;48.782;9.252;2023-03-31T11:57:45;0.90;;;0.50;;
438;SDS011;206;48.782;9.252;2023-03-31T12:02:47;1.70;;;0.50;;
438;SDS011;206;48.782;9.252;2023-03-31T12:05:39;1.40;;;0.80;;
438;SDS011;206;48.782;9.252;2023-03-31T12:08:15;1.23;;;0.73;;
438;SDS011;206;48.782;9.252;2023-03-31T12:10:47;1.63;;;0.70;;
438;SDS011;206;48.782;9.252;2023-03-31T12:13:25;1.53;;;0.60;;
438;SDS011;206;48.782;9.252;2023-03-31T12:21:35;3.17;;;1.17;;
438;SDS011;206;48.782;9.252;2023-03-31T12:24:05;1.20;;;0.90;;
438;SDS011;206;48.782;9.252;2023-03-31T12:26:33;1.13;;;0.60;;
438;SDS011;206;48.782;9.252;2023-03-31T12:29:27;1.43;;;0.70;;
438;SDS011;206;48.782;9.252;2023-03-31T12:32:16;8.23;;;4.30;;
438;SDS011;206;48.782;9.252;2023-03-31T12:34:48;5.00;;;3.10;;
438;SDS011;206;48.782;9.252;2023-03-31T12:37:31;4.00;;;2.63;;
438;SDS011;206;48.782;9.252;2023-03-31T12:55:59;1.00;;;0.60;;
438;SDS011;206;48.782;9.252;2023-03-31T13:14:05;4.03;;;1.13;;
438;SDS011;206;48.782;9.252;2023-03-31T13:16:38;7.50;;;1.37;;
438;SDS011;206;48.782;9.252;2023-03-31T13:19:04;2.17;;;0.87;;
438;SDS011;206;48.782;9.252;2023-03-31T13:21:30;3.27;;;1.63;;
438;SDS011;206;48.782;9.252;2023-03-31T13:24:00;4.97;;;1.33;;
438;SDS011;206;48.782;9.252;2023-03-31T13:34:27;4.23;;;1.53;;
438;SDS011;206;48.782;9.252;2023-03-31T14:07:58;1.00;;;0.50;;
438;SDS011;206;48.782;9.252;2023-03-31T14:10:47;2.70;;;0.40;;
438;SDS011;206;48.782;9.252;2023-03-31T14:13:14;1.23;;;0.50;;
438;SDS011;206;48.782;9.252;2023-03-31T14:15:46;1.07;;;0.50;;
438;SDS011;206;48.782;9.252;2023-03-31T14:18:26;2.27;;;0.80;;
438;SDS011;206;48.782;9.252;2023-03-31T14:21:06;2.10;;;0.60;;
438;SDS011;206;48.782;9.252;2023-03-31T14:30:04;1.30;;;0.67;;
438;SDS011;206;48.782;9.252;2023-03-31T14:32:39;1.37;;;0.60;;
438;SDS011;206;48.782;9.252;2023-03-31T14:35:30;1.53;;;0.93;;
438;SDS011;206;48.782;9.252;2023-03-31T14:38:09;2.35;;;0.95;;
438;SDS011;206;48.782;9.252;2023-03-31T14:40:51;2.10;;;0.97;;
438;SDS011;206;48.782;9.252;2023-03-31T14:43:21;2.20;;;0.70;;
438;SDS011;206;48.782;9.252;2023-03-31T14:48:26;1.57;;;0.60;;
438;SDS011;206;48.782;9.252;2023-03-31T14:50:58;2.57;;;0.70;;
438;SDS011;206;48.782;9.252;2023-03-31T14:53:26;2.00;;;0.70;;
438;SDS011;206;48.782;9.252;2023-03-31T14:56:03;1.40;;;0.60;;
438;SDS011;206;48.782;9.252;2023-03-31T14:58:33;1.67;;;0.80;;
438;SDS011;206;48.782;9.252;2023-03-31T15:01:01;2.37;;;0.87;;
438;SDS011;206;48.782;9.252;2023-03-31T15:03:30;1.47;;;0.60;;
438;SDS011;206;48.782;9.252;2023-03-31T15:06:02;2.30;;;0.60;;
438;SDS011;206;48.782;9.252;2023-03-31T15:08:29;1.67;;;0.80;;
438;SDS011;206;48.782;9.252;2023-03-31T15:11:00;1.20;;;0.50;;
438;SDS011;206;48.782;9.252;2023-03-31T15:13:40;3.30;;;1.17;;
438;SDS011;206;48.782;9.252;2023-03-31T15:18:45;6.70;;;2.23;;
438;SDS011;206;48.782;9.252;2023-03-31T15:21:35;2.17;;;1.07;;
438;SDS011;206;48.782;9.252;2023-03-31T15:24:02;0.70;;;0.40;;
438;SDS011;206;48.782;9.252;2023-03-31T15:26:29;1.83;;;0.80;;
438;SDS011;206;48.782;9.252;2023-03-31T15:29:04;1.90;;;0.70;;
438;SDS011;206;48.782;9.252;2023-03-31T15:31:54;1.33;;;0.90;;
438;SDS011;206;48.782;9.252;2023-03-31T15:34:21;1.60;;;0.70;;
438;SDS011;206;48.782;9.252;2023-03-31T15:36:57;1.63;;;0.87;;
438;SDS011;206;48.782;9.252;2023-03-31T15:39:24;1.07;;;0.70;;
438;SDS011;206;48.782;9.252;2023-03-31T15:41:52;2.53;;;0.97;;
438;SDS011;206;48.782;9.252;2023-03-31T15:44:26;2.45;;;0.70;;
438;SDS011;206;48.782;9.252;2023-03-31T15:49:35;4.07;;;1.13;;
438;SDS011;206;48.782;9.252;2023-03-31T15:52:01;3.63;;;1.23;;
438;SDS011;206;48.782;9.252;2023-03-31T15:57:04;2.20;;;1.17;;
438;SDS011;206;48.782;9.252;2023-03-31T15:59:42;2.73;;;1.00;;
438;SDS011;206;48.782;9.252;2023-03-31T16:02:10;1.33;;;0.73;;
438;SDS011;206;48.782;9.252;2023-03-31T16:04:38;1.50;;;1.07;;
438;SDS011;206;48.782;9.252;2023-03-31T16:07:05;2.50;;;0.93;;
438;SDS011;206;48.782;9.252;2023-03-31T16:15:05;1.33;;;0.80;;
438;SDS011;206;48.782;9.252;2023-03-31T16:17:39;1.30;;;0.60;;
438;SDS011;206;48.782;9.252;2023-03-31T16:20:08;1.40;;;0.80;;
438;SDS011;206;48.782;9.252;2023-03-31T16:22:42;1.50;;;0.93;;
438;SDS011;206;48.782;9.252;2023-03-31T16:25:11;2.10;;;0.90;;
438;SDS011;206;48.782;9.252;2023-03-31T16:27:42;2.17;;;0.77;;
438;SDS011;206;48.782;9.252;2023-03-31T16:30:18;8.07;;;1.70;;
438;SDS011;206;48.782;9.252;2023-03-31T16:35:28;4.10;;;1.10;;
438;SDS011;206;48.782;9.252;2023-03-31T16:37:56;2.03;;;1.00;;
438;SDS011;206;48.782;9.252;2023-03-31T16:40:22;2.47;;;1.10;;
438;SDS011;206;48.782;9.252;2023-03-31T16:42:47;2.20;;;0.90;;
438;SDS011;206;48.782;9.252;2023-03-31T16:45:13;1.30;;;0.53;;
438;SDS011;206;48.782;9.252;2023-03-31T16:47:38;1.83;;;0.70;;
438;SDS011;206;48.782;9.252;2023-03-31T16:50:04;1.70;;;0.80;;
438;SDS011;206;48.782;9.252;2023-03-31T16:52:31;1.27;;;0.67;;
438;SDS011;206;48.782;9.252;2023-03-31T16:54:56;1.00;;;0.70;;
438;SDS011;206;48.782;9.252;2023-03-31T16:57:22;1.47;;;0.70;;
438;SDS011;206;48.782;9.252;2023-03-31T16:59:48;1.27;;;0.50;;
438;SDS011;206;48.782;9.252;2023-03-31T17:02:13;0.70;;;0.53;;
438;SDS011;206;48.782;9.252;2023-03-31T17:04:39;0.80;;;0.50;;
438;SDS011;206;48.782;9.252;2023-03-31T17:07:05;1.07;;;0.80;;
438;SDS011;206;48.782;9.252;2023-03-31T17:09:31;1.10;;;0.57;;
438;SDS011;206;48.782;9.252;2023-03-31T17:11:56;1.57;;;0.60;;
438;SDS011;206;48.782;9.252;2023-03-31T17:14:22;1.57;;;0.83;;
438;SDS011;206;48.782;9.252;2023-03-31T17:16:48;3.90;;;1.37;;
438;SDS011;206;48.782;9.252;2023-03-31T17:19:14;1.17;;;0.73;;
438;SDS011;206;48.782;9.252;2023-03-31T17:21:41;1.77;;;0.87;;
438;SDS011;206;48.782;9.252;2023-03-31T17:24:07;1.13;;;0.77;;
438;SDS011;206;48.782;9.252;2023-03-31T17:26:33;1.67;;;0.90;;
438;SDS011;206;48.782;9.252;2023-03-31T17:29:00;3.33;;;1.67;;
438;SDS011;206;48.782;9.252;2023-03-31T17:31:25;2.10;;;0.90;;
438;SDS011;206;48.782;9.252;2023-03-31T17:33:51;1.27;;;0.83;;
438;SDS011;206;48.782;9.252;2023-03-31T17:36:17;3.77;;;1.27;;
438;SDS011;206;48.782;9.252;2023-03-31T17:38:42;2.10;;;1.13;;
438;SDS011;206;48.782;9.252;2023-03-31T17:41:09;3.93;;;1.40;;
438;SDS011;206;48.782;9.252;2023-03-31T17:43:36;1.97;;;1.17;;
438;SDS011;206;48.782;9.252;2023-03-31T17:46:03;2.83;;;0.93;;
438;SDS011;206;48.782;9.252;2023-03-31T17:48:31;2.80;;;1.20;;
438;SDS011;206;48.782;9.252;2023-03-31T17:51:04;3.07;;;2.13;;
438;SDS011;206;48.782;9.252;2023-03-31T17:53:31;3.00;;;1.90;;
438;SDS011;206;48.782;9.252;2023-03-31T17:55:58;3.80;;;1.67;;
438;SDS011;206;48.782;9.252;2023-03-31T17:58:25;3.37;;;1.33;;
438;SDS011;206;48.782;9.252;2023-03-31T18:00:51;2.07;;;1.23;;
438;SDS011;206;48.782;9.252;2023-03-31T18:03:17;1.97;;;1.30;;
438;SDS011;206;48.782;9.252;2023-03-31T18:05:42;1.87;;;1.10;;
438;SDS011;206;48.782;9.252;2023-03-31T18:08:09;3.77;;;1.27;;
438;SDS011;206;48.782;9.252;2023-03-31T18:10:35;1.33;;;1.00;;
438;SDS011;206;48.782;9.252;2023-03-31T18:13:01;3.50;;;1.30;;
438;SDS011;206;48.782;9.252;2023-03-31T18:15:27;2.40;;;1.50;;
438;SDS011;206;48.782;9.252;2023-03-31T18:17:53;2.50;;;1.53;;
438;SDS011;206;48.782;9.252;2023-03-31T18:20:19;2.20;;;1.43;;
438;SDS011;206;48.782;9.252;2023-03-31T18:22:44;4.53;;;3.30;;
438;SDS011;206;48.782;9.252;2023-03-31T18:25:10;4.23;;;1.70;;
438;SDS011;206;48.782;9.252;2023-03-31T18:27:36;3.20;;;1.43;;
438;SDS011;206;48.782;9.252;2023-03-31T18:30:03;2.03;;;1.07;;
438;SDS011;206;48.782;9.252;2023-03-31T18:32:30;2.63;;;0.87;;
438;SDS011;206;48.782;9.252;2023-03-31T18:34:55;3.10;;;1.47;;
438;SDS011;206;48.782;9.252;2023-03-31T18:37:21;3.63;;;2.53;;
438;SDS011;206;48.782;9.252;2023-03-31T18:39:47;4.40;;;1.87;;
438;SDS011;206;48.782;9.252;2023-03-31T18:42:12;4.33;;;2.17;;
438;SDS011;206;48.782;9.252;2023-03-31T18:44:38;3.77;;;2.30;;
438;SDS011;206;48.782;9.252;2023-03-31T18:47:04;7.20;;;3.27;;
438;SDS011;206;48.782;9.252;2023-03-31T18:49:30;5.70;;;2.87;;
438;SDS011;206;48.782;9.252;2023-03-31T18:51:56;4.90;;;1.63;;
438;SDS011;206;48.782;9.252;2023-03-31T18:54:23;5.50;;;1.90;;
438;SDS011;206;48.782;9.252;2023-03-31T18:56:48;5.90;;;1.40;;
438;SDS011;206;48.782;9.252;2023-03-31T18:59:14;2.50;;;1.67;;
438;SDS011;206;48.782;9.252;2023-03-31T19:01:40;1.73;;;1.33;;
438;SDS011;206;48.782;9.252;2023-03-31T19:04:06;2.23;;;1.20;;
438;SDS011;206;48.782;9.252;2023-03-31T19:06:32;4.27;;;1.07;;
438;SDS011;206;48.782;9.252;2023-03-31T19:09:00;2.20;;;0.90;;
438;SDS011;206;48.782;9.252;2023-03-31T19:11:26;3.27;;;0.90;;
438;SDS011;206;48.782;9.252;2023-03-31T19:13:51;2.70;;;1.80;;
438;SDS011;206;48.782;9.252;2023-03-31T19:16:19;3.03;;;0.87;;
438;SDS011;206;48.782;9.252;2023-03-31T19:18:45;6.60;;;1.60;;
438;SDS011;206;48.782;9.252;2023-03-31T19:21:11;4.73;;;1.20;;
438;SDS011;206;48.782;9.252;2023-03-31T19:23:37;5.45;;;1.33;;
438;SDS011;206;48.782;9.252;2023-03-31T19:26:03;4.13;;;1.80;;
438;SDS011;206;48.782;9.252;2023-03-31T19:28:29;1.67;;;0.83;;
438;SDS011;206;48.782;9.252;2023-03-31T19:30:55;10.53;;;1.27;;
438;SDS011;206;48.782;9.252;2023-03-31T19:33:22;2.63;;;1.97;;
438;SDS011;206;48.782;9.252;2023-03-31T19:35:49;2.13;;;1.30;;